Time;durP1;ratioP1;P1;durP2;ratioP2;P2;SDS_P1;SDS_P2;PMS_P1;PMS_P2;Temp;Humidity;BMP_temperature;BMP_pressure;BME280_temperature;BME280_humidity;BME280_pressure;Samples;Min_cycle;Max_cycle;Signal;HPM_P1;HPM_P2
2021/09/19 00:00:12;;;;;;;8.32;5.75;;;14.70;67.70;;;;;;5046115;28;20033;-40
2021/09/19 00:02:56;;;;;;;7.70;5.50;;;14.60;67.70;;;;;;5045803;28;20083;-40
2021/09/19 00:05:40;;;;;;;8.50;6.07;;;14.60;67.70;;;;;;5045703;28;20036;-41
2021/09/19 00:08:27;;;;;;;10.70;5.45;;;14.60;67.80;;;;;;5046052;28;20037;-40
2021/09/19 00:11:11;;;;;;;8.48;6.07;;;14.60;67.80;;;;;;5045439;28;20072;-40
2021/09/19 00:13:55;;;;;;;7.55;5.60;;;14.60;67.90;;;;;;5045429;28;20036;-40
2021/09/19 00:16:40;;;;;;;8.63;5.85;;;14.50;67.80;;;;;;5045398;28;20033;-40
2021/09/19 00:19:24;;;;;;;7.68;5.50;;;14.50;67.80;;;;;;5045432;28;20060;-39
2021/09/19 00:22:08;;;;;;;9.10;5.18;;;14.50;67.70;;;;;;5045388;28;20032;-40
2021/09/19 00:24:52;;;;;;;6.97;5.45;;;14.50;67.70;;;;;;5045088;28;20108;-40
2021/09/19 00:27:37;;;;;;;7.78;5.43;;;14.40;67.70;;;;;;5045237;28;20095;-40
2021/09/19 00:30:21;;;;;;;6.97;5.32;;;14.40;67.70;;;;;;5045257;28;20028;-40
2021/09/19 00:33:05;;;;;;;9.57;6.10;;;14.40;67.70;;;;;;5045588;28;20025;-40
2021/09/19 00:35:49;;;;;;;7.45;5.78;;;14.40;67.60;;;;;;5045288;28;20041;-40
2021/09/19 00:38:33;;;;;;;8.38;5.45;;;14.40;67.60;;;;;;5045543;28;20032;-40
2021/09/19 00:41:18;;;;;;;9.82;6.10;;;14.30;67.70;;;;;;5044981;28;20036;-40
2021/09/19 00:44:08;;;;;;;10.18;5.57;;;14.30;67.70;;;;;;5044816;28;20103;-40
2021/09/19 00:46:53;;;;;;;8.38;5.47;;;14.30;67.70;;;;;;5045184;28;20074;-39
2021/09/19 00:49:38;;;;;;;8.27;5.50;;;14.30;67.80;;;;;;5044773;28;20032;-40
2021/09/19 00:52:22;;;;;;;8.55;5.90;;;14.20;67.80;;;;;;5044991;28;20032;-39
2021/09/19 00:55:08;;;;;;;6.95;5.57;;;14.20;67.80;;;;;;5044821;28;20068;-40
2021/09/19 00:57:53;;;;;;;8.20;5.20;;;14.20;67.80;;;;;;5044640;28;20032;-40
2021/09/19 01:00:38;;;;;;;9.15;5.57;;;14.20;67.90;;;;;;5044518;28;20048;-40
2021/09/19 01:03:22;;;;;;;9.18;5.20;;;14.10;68.10;;;;;;5043667;28;20093;-39
2021/09/19 01:06:06;;;;;;;8.00;5.30;;;14.20;68.00;;;;;;5044080;28;20048;-40
2021/09/19 01:08:50;;;;;;;11.32;6.50;;;14.10;67.90;;;;;;5044525;28;20036;-39
2021/09/19 01:11:35;;;;;;;9.05;5.90;;;14.10;68.00;;;;;;5044928;28;20036;-40
2021/09/19 01:14:19;;;;;;;7.20;5.43;;;14.00;68.10;;;;;;5029933;28;20047;-39
2021/09/19 01:17:04;;;;;;;9.73;5.97;;;13.90;68.30;;;;;;5043412;28;20272;-40
2021/09/19 01:19:49;;;;;;;8.43;5.95;;;13.90;68.10;;;;;;5044106;28;20044;-40
2021/09/19 01:22:34;;;;;;;7.70;6.25;;;13.90;68.20;;;;;;5029442;28;20079;-39
2021/09/19 01:25:18;;;;;;;12.18;5.93;;;13.90;68.20;;;;;;5044513;28;20327;-39
2021/09/19 01:28:03;;;;;;;7.32;5.45;;;13.90;68.20;;;;;;5044176;28;20040;-40
2021/09/19 01:30:47;;;;;;;9.57;5.90;;;13.90;68.10;;;;;;5044045;28;20051;-40
2021/09/19 01:33:32;;;;;;;6.95;5.32;;;13.90;67.90;;;;;;5044046;28;20220;-40
2021/09/19 01:36:16;;;;;;;7.25;5.60;;;13.80;67.90;;;;;;5043975;28;20027;-40
2021/09/19 01:39:01;;;;;;;7.95;5.88;;;13.80;67.80;;;;;;5044280;28;20075;-40
2021/09/19 01:41:47;;;;;;;9.02;5.70;;;13.80;67.90;;;;;;5044035;28;20375;-39
2021/09/19 01:44:31;;;;;;;8.43;5.70;;;13.80;67.70;;;;;;5043604;28;20249;-40
2021/09/19 01:47:15;;;;;;;10.40;6.07;;;13.80;67.70;;;;;;5044252;28;20048;-39
2021/09/19 01:49:59;;;;;;;8.93;6.30;;;13.70;67.70;;;;;;5044138;28;20247;-40
2021/09/19 01:52:44;;;;;;;7.65;5.93;;;13.70;67.80;;;;;;5044096;28;20071;-40
2021/09/19 01:55:28;;;;;;;8.95;5.38;;;13.70;67.70;;;;;;5044027;28;20067;-39
2021/09/19 01:58:13;;;;;;;7.88;5.85;;;13.60;67.70;;;;;;5043871;28;20060;-40
2021/09/19 02:00:58;;;;;;;10.13;5.82;;;13.60;67.80;;;;;;5043932;28;20040;-40
2021/09/19 02:03:42;;;;;;;8.50;5.28;;;13.60;67.80;;;;;;5043917;28;20193;-40
2021/09/19 02:06:26;;;;;;;9.18;6.03;;;13.60;67.90;;;;;;5043638;28;20033;-39
2021/09/19 02:09:11;;;;;;;7.57;5.57;;;13.60;67.80;;;;;;5044055;28;20056;-40
2021/09/19 02:11:55;;;;;;;8.10;5.82;;;13.50;67.90;;;;;;5047443;28;20051;-40
2021/09/19 02:14:41;;;;;;;9.00;6.18;;;13.50;68.00;;;;;;5047775;28;20055;-40
2021/09/19 02:17:25;;;;;;;9.10;5.80;;;13.40;68.00;;;;;;5048044;28;20217;-40
2021/09/19 02:20:11;;;;;;;8.85;6.03;;;13.40;68.00;;;;;;5047444;28;20045;-40
2021/09/19 02:22:55;;;;;;;6.97;5.10;;;13.40;67.90;;;;;;5047428;28;20035;-39
2021/09/19 02:25:39;;;;;;;7.28;5.68;;;13.40;67.90;;;;;;5047665;28;20056;-39
2021/09/19 02:28:23;;;;;;;8.90;5.93;;;13.50;67.70;;;;;;5047417;28;20049;-40
2021/09/19 02:31:08;;;;;;;8.93;5.60;;;13.40;67.90;;;;;;5047387;28;20036;-39
2021/09/19 02:33:52;;;;;;;7.93;5.78;;;13.30;67.90;;;;;;5047301;28;20375;-40
2021/09/19 02:36:40;;;;;;;9.63;6.15;;;13.30;67.90;;;;;;5047305;28;20036;-40
2021/09/19 02:39:24;;;;;;;9.35;5.82;;;13.30;68.00;;;;;;5047058;28;20088;-40
2021/09/19 02:42:09;;;;;;;8.07;5.32;;;13.30;67.90;;;;;;5046635;28;20025;-39
2021/09/19 02:44:53;;;;;;;8.95;5.63;;;13.30;67.90;;;;;;5047190;28;20032;-40
2021/09/19 02:47:38;;;;;;;10.88;5.82;;;13.30;67.80;;;;;;5047075;28;20256;-40
2021/09/19 02:50:23;;;;;;;9.30;5.60;;;13.30;67.90;;;;;;5046619;28;20071;-40
2021/09/19 02:53:07;;;;;;;8.43;5.60;;;13.20;67.70;;;;;;5046995;28;20033;-40
2021/09/19 02:55:52;;;;;;;7.15;5.30;;;13.20;67.70;;;;;;5047510;28;20344;-40
2021/09/19 02:58:37;;;;;;;10.98;5.30;;;13.20;67.90;;;;;;5047117;28;20377;-39
2021/09/19 03:01:21;;;;;;;8.00;4.90;;;13.10;67.90;;;;;;5047181;28;20024;-40
2021/09/19 03:04:05;;;;;;;6.93;4.95;;;13.10;67.90;;;;;;5046969;28;20099;-40
2021/09/19 03:06:49;;;;;;;6.95;5.00;;;13.10;67.90;;;;;;5046715;28;20404;-39
2021/09/19 03:09:34;;;;;;;6.35;4.88;;;13.10;67.90;;;;;;5046694;28;20213;-40
2021/09/19 03:12:18;;;;;;;6.45;4.60;;;13.00;68.00;;;;;;5046869;28;20033;-40
2021/09/19 03:15:03;;;;;;;7.40;4.88;;;13.00;67.90;;;;;;5047044;28;20033;-39
2021/09/19 03:17:47;;;;;;;7.00;5.35;;;13.00;67.90;;;;;;5046783;28;20225;-39
2021/09/19 03:20:31;;;;;;;6.78;5.03;;;12.90;67.90;;;;;;5045475;28;20044;-39
2021/09/19 03:23:15;;;;;;;9.18;4.95;;;12.90;67.90;;;;;;5045905;28;20095;-40
2021/09/19 03:25:59;;;;;;;5.85;4.55;;;12.90;67.80;;;;;;5045292;28;20052;-40
2021/09/19 03:28:43;;;;;;;6.90;4.78;;;12.90;67.70;;;;;;5046378;28;20140;-39
2021/09/19 03:31:28;;;;;;;11.45;5.57;;;12.80;67.80;;;;;;5046210;28;20056;-40
2021/09/19 03:34:12;;;;;;;6.60;4.70;;;12.80;67.70;;;;;;5046618;28;20048;-40
2021/09/19 03:36:57;;;;;;;6.57;4.70;;;12.80;67.80;;;;;;5045547;28;20383;-40
2021/09/19 03:39:41;;;;;;;6.07;4.60;;;12.80;67.80;;;;;;5046080;28;20044;-40
2021/09/19 03:42:25;;;;;;;5.30;4.20;;;12.80;67.90;;;;;;5046105;28;20092;-40
2021/09/19 03:45:10;;;;;;;7.00;4.70;;;12.90;67.90;;;;;;5046747;28;20089;-40
2021/09/19 03:47:53;;;;;;;7.35;5.22;;;12.80;67.90;;;;;;5046145;28;20080;-40
2021/09/19 03:50:38;;;;;;;6.32;4.53;;;12.80;68.00;;;;;;5045903;28;20037;-39
2021/09/19 03:53:22;;;;;;;6.47;4.20;;;12.80;68.00;;;;;;5046334;28;20448;-39
2021/09/19 03:56:06;;;;;;;7.45;4.93;;;12.80;68.00;;;;;;5046204;28;20076;-40
2021/09/19 03:58:50;;;;;;;10.18;5.13;;;12.80;67.90;;;;;;5046015;28;20031;-39
2021/09/19 04:01:35;;;;;;;7.43;5.43;;;12.80;68.00;;;;;;5046018;28;20135;-39
2021/09/19 04:04:19;;;;;;;6.47;4.95;;;12.80;67.90;;;;;;5045942;28;20260;-39
2021/09/19 04:07:03;;;;;;;7.40;5.38;;;12.80;67.90;;;;;;5045881;28;20037;-39
2021/09/19 04:09:48;;;;;;;7.35;4.90;;;12.70;67.90;;;;;;5045521;28;20244;-39
2021/09/19 04:12:32;;;;;;;6.28;5.00;;;12.80;67.80;;;;;;5045541;28;20344;-40
2021/09/19 04:15:17;;;;;;;9.10;5.22;;;12.80;67.40;;;;;;5045504;28;20044;-40
2021/09/19 04:18:01;;;;;;;7.28;4.72;;;12.70;67.80;;;;;;5045999;28;20069;-39
2021/09/19 04:20:45;;;;;;;9.27;5.03;;;12.70;67.70;;;;;;5045524;28;20056;-39
2021/09/19 04:23:29;;;;;;;6.22;4.43;;;12.60;67.90;;;;;;5045713;28;20036;-40
2021/09/19 04:26:14;;;;;;;5.72;4.38;;;12.60;67.90;;;;;;5045302;28;20048;-40
2021/09/19 04:28:58;;;;;;;6.03;4.40;;;12.50;67.90;;;;;;5045217;28;20068;-40
2021/09/19 04:31:42;;;;;;;6.50;4.30;;;12.50;68.00;;;;;;5045293;28;20093;-39
2021/09/19 04:34:27;;;;;;;7.03;4.88;;;12.60;68.00;;;;;;5044459;28;20128;-39
2021/09/19 04:37:13;;;;;;;8.38;5.10;;;12.60;68.10;;;;;;5044970;28;20039;-39
2021/09/19 04:39:57;;;;;;;6.47;4.70;;;12.50;68.10;;;;;;5044959;28;20048;-40
2021/09/19 04:42:42;;;;;;;6.97;4.72;;;12.50;68.20;;;;;;5045009;28;20048;-40
2021/09/19 04:45:26;;;;;;;7.40;4.53;;;12.40;68.30;;;;;;5045711;28;20031;-40
2021/09/19 04:48:10;;;;;;;8.05;5.20;;;12.50;68.40;;;;;;5045410;28;20205;-39
2021/09/19 04:50:54;;;;;;;9.30;5.75;;;12.40;68.40;;;;;;5045049;28;20344;-39
2021/09/19 04:53:38;;;;;;;10.30;6.35;;;12.50;68.40;;;;;;5044760;28;20064;-39
2021/09/19 04:56:23;;;;;;;9.75;6.38;;;12.50;68.40;;;;;;5044597;28;20036;-39
2021/09/19 04:59:07;;;;;;;12.40;6.00;;;12.50;68.40;;;;;;5044924;28;20044;-40
2021/09/19 05:01:51;;;;;;;11.38;6.18;;;12.50;68.50;;;;;;5044473;28;20028;-40
2021/09/19 05:04:35;;;;;;;10.27;6.15;;;12.50;68.60;;;;;;5044747;28;20210;-40
2021/09/19 05:07:20;;;;;;;10.93;6.90;;;12.50;68.60;;;;;;5044444;28;20350;-39
2021/09/19 05:10:04;;;;;;;12.25;6.93;;;12.50;68.70;;;;;;5044363;28;20071;-39
2021/09/19 05:12:49;;;;;;;10.52;7.10;;;12.50;68.70;;;;;;5044404;28;20040;-40
2021/09/19 05:15:33;;;;;;;11.15;7.22;;;12.40;68.70;;;;;;5044413;28;20075;-40
2021/09/19 05:18:17;;;;;;;11.73;6.07;;;12.40;68.60;;;;;;5044389;28;20029;-40
2021/09/19 05:21:03;;;;;;;10.73;6.70;;;12.50;68.60;;;;;;5044047;28;20325;-39
2021/09/19 05:23:47;;;;;;;10.23;6.53;;;12.50;68.70;;;;;;5044155;28;20036;-40
2021/09/19 05:26:31;;;;;;;12.05;6.55;;;12.50;68.60;;;;;;5044632;28;20083;-40
2021/09/19 05:29:15;;;;;;;9.77;6.63;;;12.40;68.70;;;;;;5044089;28;20040;-39
2021/09/19 05:31:59;;;;;;;8.77;5.90;;;12.40;68.80;;;;;;5043991;28;20087;-39
2021/09/19 05:34:44;;;;;;;10.63;6.95;;;12.40;68.80;;;;;;5044453;28;20415;-40
2021/09/19 05:37:28;;;;;;;11.65;5.88;;;12.50;68.90;;;;;;5043865;28;20028;-39
2021/09/19 05:40:14;;;;;;;9.30;6.07;;;12.50;69.10;;;;;;5044069;28;20047;-40
2021/09/19 05:43:00;;;;;;;14.43;6.20;;;12.50;69.10;;;;;;5043900;28;20040;-39
2021/09/19 05:45:44;;;;;;;11.90;6.57;;;12.50;69.20;;;;;;5043642;28;20056;-39
2021/09/19 05:48:28;;;;;;;8.38;6.18;;;12.60;69.30;;;;;;5043793;28;20102;-40
2021/09/19 05:51:13;;;;;;;10.60;6.38;;;12.60;69.50;;;;;;5044199;28;20145;-39
2021/09/19 05:53:57;;;;;;;10.50;6.05;;;12.70;69.70;;;;;;5043829;28;20032;-39
2021/09/19 05:56:41;;;;;;;13.35;6.00;;;12.70;69.90;;;;;;5043815;28;20220;-40
2021/09/19 05:59:25;;;;;;;10.43;6.30;;;12.80;70.10;;;;;;5043956;28;20036;-39
2021/09/19 06:02:10;;;;;;;10.27;6.95;;;12.80;70.30;;;;;;5043928;28;20044;-39
2021/09/19 06:04:54;;;;;;;11.05;7.03;;;12.90;70.10;;;;;;5043971;28;20081;-40
2021/09/19 06:07:38;;;;;;;10.70;7.05;;;13.00;70.30;;;;;;5043789;28;20040;-40
2021/09/19 06:10:23;;;;;;;11.90;7.32;;;13.20;70.20;;;;;;5043317;28;20040;-40
2021/09/19 06:13:07;;;;;;;11.75;7.60;;;13.30;70.30;;;;;;5043582;28;20063;-40
2021/09/19 06:15:51;;;;;;;11.27;7.90;;;13.40;70.50;;;;;;5043492;28;20087;-40
2021/09/19 06:18:36;;;;;;;11.45;7.10;;;13.60;70.30;;;;;;5043304;28;20344;-40
2021/09/19 06:21:20;;;;;;;12.00;8.20;;;13.80;70.30;;;;;;5043675;28;20033;-40
2021/09/19 06:24:04;;;;;;;10.45;8.02;;;14.00;69.80;;;;;;5043536;28;20107;-40
2021/09/19 06:26:48;;;;;;;11.48;8.40;;;14.10;70.20;;;;;;5042550;28;20037;-40
2021/09/19 06:29:32;;;;;;;10.93;7.93;;;14.30;69.70;;;;;;5043848;28;20091;-40
2021/09/19 06:32:16;;;;;;;11.65;8.38;;;14.60;69.50;;;;;;5043669;28;20048;-41
2021/09/19 06:35:01;;;;;;;13.55;9.00;;;14.80;69.60;;;;;;5043136;28;20076;-42
2021/09/19 06:37:45;;;;;;;11.70;8.63;;;15.00;69.40;;;;;;5043309;28;20237;-40
2021/09/19 06:40:29;;;;;;;13.15;8.98;;;15.30;68.60;;;;;;5043118;28;20044;-40
2021/09/19 06:43:13;;;;;;;10.52;8.23;;;15.80;67.30;;;;;;5043387;28;20097;-41
2021/09/19 06:45:57;;;;;;;12.15;7.68;;;16.20;66.80;;;;;;5043491;28;20302;-41
2021/09/19 06:48:42;;;;;;;10.10;7.50;;;16.60;65.60;;;;;;5043529;28;20101;-41
2021/09/19 06:51:26;;;;;;;8.75;7.03;;;17.10;64.60;;;;;;5043324;28;20032;-41
2021/09/19 06:54:11;;;;;;;9.30;7.00;;;17.80;63.10;;;;;;5044002;28;20172;-40
2021/09/19 06:56:55;;;;;;;10.35;7.43;;;18.30;61.90;;;;;;5044505;28;20039;-41
2021/09/19 06:59:39;;;;;;;9.63;7.20;;;18.80;60.70;;;;;;5046744;28;20036;-41
2021/09/19 07:02:23;;;;;;;10.20;7.60;;;19.30;59.30;;;;;;5047391;28;20093;-41
2021/09/19 07:05:08;;;;;;;10.48;7.30;;;19.80;58.40;;;;;;5047437;28;20032;-41
2021/09/19 07:07:52;;;;;;;10.10;7.97;;;20.20;56.80;;;;;;5047467;28;20033;-40
2021/09/19 07:10:36;;;;;;;9.32;7.15;;;20.50;55.50;;;;;;5046978;28;20036;-41
2021/09/19 07:13:21;;;;;;;11.48;7.72;;;21.20;54.20;;;;;;5046769;28;20452;-42
2021/09/19 07:16:06;;;;;;;9.90;7.95;;;21.50;53.60;;;;;;5046754;28;20121;-45
2021/09/19 07:18:50;;;;;;;10.85;7.88;;;21.90;52.70;;;;;;5046383;28;20037;-43
2021/09/19 07:21:34;;;;;;;12.85;9.68;;;22.30;51.80;;;;;;5046453;28;20108;-43
2021/09/19 07:24:18;;;;;;;25.98;17.00;;;22.70;51.20;;;;;;5046051;28;20052;-42
2021/09/19 07:27:04;;;;;;;21.08;13.68;;;22.90;49.70;;;;;;5047001;28;20024;-42
2021/09/19 07:29:48;;;;;;;16.35;11.63;;;23.30;48.90;;;;;;5046445;28;20040;-43
2021/09/19 07:32:34;;;;;;;12.65;10.10;;;23.70;47.70;;;;;;5046752;28;20049;-43
2021/09/19 07:35:18;;;;;;;10.23;7.72;;;23.90;46.70;;;;;;5046580;28;20221;-44
2021/09/19 07:38:03;;;;;;;10.27;7.78;;;24.30;46.30;;;;;;5046069;28;20040;-42
2021/09/19 07:40:47;;;;;;;10.73;7.00;;;24.70;45.90;;;;;;5046261;28;20248;-43
2021/09/19 07:43:31;;;;;;;9.70;6.88;;;24.60;44.90;;;;;;5045064;28;20385;-42
2021/09/19 07:46:16;;;;;;;8.63;7.07;;;24.80;43.80;;;;;;5046145;28;20089;-41
2021/09/19 07:49:00;;;;;;;11.57;6.90;;;25.10;43.70;;;;;;5045157;28;20032;-41
2021/09/19 07:51:45;;;;;;;7.88;6.25;;;25.50;43.40;;;;;;5046227;28;20217;-41
2021/09/19 07:54:29;;;;;;;6.82;5.40;;;25.70;42.60;;;;;;5045728;28;20075;-41
2021/09/19 07:57:13;;;;;;;8.15;6.07;;;25.90;42.80;;;;;;5046253;28;20029;-41
2021/09/19 07:59:57;;;;;;;8.18;6.40;;;25.90;42.10;;;;;;5045830;28;20041;-43
2021/09/19 08:02:42;;;;;;;7.50;5.95;;;25.90;42.50;;;;;;5045162;28;20340;-42
2021/09/19 08:05:26;;;;;;;7.28;5.90;;;26.20;42.30;;;;;;5045509;28;20035;-41
2021/09/19 08:08:10;;;;;;;7.18;5.38;;;26.20;42.10;;;;;;5043865;28;20067;-41
2021/09/19 08:10:54;;;;;;;7.85;5.78;;;26.10;42.40;;;;;;5045773;28;20241;-44
2021/09/19 08:13:39;;;;;;;7.00;5.60;;;26.20;42.10;;;;;;5045701;28;20032;-45
2021/09/19 08:16:23;;;;;;;6.75;5.28;;;25.80;43.10;;;;;;5045563;28;20032;-41
2021/09/19 08:19:08;;;;;;;6.60;4.97;;;25.50;43.70;;;;;;5045385;28;20079;-41
2021/09/19 08:21:52;;;;;;;8.55;4.50;;;25.10;45.10;;;;;;5045394;28;20032;-41
2021/09/19 08:24:36;;;;;;;6.55;4.60;;;24.70;46.20;;;;;;5045100;28;20037;-42
2021/09/19 08:27:20;;;;;;;7.38;4.97;;;24.30;46.40;;;;;;5045115;28;20032;-42
2021/09/19 08:30:05;;;;;;;6.47;4.45;;;24.10;47.80;;;;;;5045583;28;20029;-41
2021/09/19 08:32:50;;;;;;;5.85;4.38;;;23.80;48.70;;;;;;5046063;28;20109;-43
2021/09/19 08:35:34;;;;;;;6.05;4.85;;;23.60;48.90;;;;;;5045508;28;20356;-41
2021/09/19 08:38:18;;;;;;;7.35;4.68;;;23.30;49.00;;;;;;5045270;28;20047;-41
2021/09/19 08:41:03;;;;;;;6.63;5.15;;;23.20;49.90;;;;;;5045184;28;20099;-41
2021/09/19 08:43:50;;;;;;;6.13;4.82;;;23.10;50.60;;;;;;5045033;28;20374;-43
2021/09/19 08:46:35;;;;;;;7.38;5.65;;;22.90;50.40;;;;;;5044945;28;20068;-42
2021/09/19 08:49:19;;;;;;;8.40;6.38;;;22.80;51.50;;;;;;5029847;28;20095;-41
2021/09/19 08:52:03;;;;;;;8.05;6.47;;;22.80;52.40;;;;;;5044549;28;20039;-43
2021/09/19 08:54:48;;;;;;;9.23;6.90;;;22.80;52.70;;;;;;5044718;28;20393;-42
2021/09/19 08:57:32;;;;;;;10.77;6.57;;;22.80;53.10;;;;;;5044591;28;20060;-43
2021/09/19 09:00:16;;;;;;;11.45;7.43;;;22.80;53.20;;;;;;5044404;28;20260;-42
2021/09/19 09:03:02;;;;;;;9.77;7.55;;;22.80;53.30;;;;;;5044818;28;20346;-42
2021/09/19 09:05:59;;;;;;;10.48;7.90;;;22.80;53.80;;;;;;5029718;28;20383;-42
2021/09/19 09:08:44;;;;;;;9.70;6.90;;;22.80;54.30;;;;;;5044363;28;20086;-41
2021/09/19 09:11:29;;;;;;;11.30;7.38;;;22.80;54.30;;;;;;5045070;28;20041;-42
2021/09/19 09:14:20;;;;;;;12.00;7.70;;;22.80;54.70;;;;;;5044543;28;20221;-42
2021/09/19 09:17:11;;;;;;;;;;;22.90;55.10;;;;;;5044861;28;20084;-42
2021/09/19 09:19:59;;;;;;;9.43;7.55;;;22.80;54.90;;;;;;5044968;28;19916;-41
2021/09/19 09:22:44;;;;;;;9.20;7.00;;;23.00;54.90;;;;;;5043011;28;20075;-42
2021/09/19 09:25:28;;;;;;;9.48;7.18;;;23.00;54.60;;;;;;5043980;28;20044;-42
2021/09/19 09:28:12;;;;;;;9.82;7.45;;;23.00;53.30;;;;;;5044099;28;20062;-43
2021/09/19 09:30:59;;;;;;;10.48;8.07;;;23.00;53.70;;;;;;5044242;28;20207;-43
2021/09/19 09:34:03;;;;;;;13.07;9.27;;;22.90;54.30;;;;;;5042932;28;20025;-43
2021/09/19 09:36:48;;;;;;;14.65;9.55;;;22.80;53.40;;;;;;5043784;28;20056;-43
2021/09/19 09:39:39;;;;;;;15.48;9.68;;;22.70;54.10;;;;;;5043939;28;20075;-41
2021/09/19 09:42:24;;;;;;;16.05;9.85;;;22.90;54.70;;;;;;5043712;28;20071;-42
2021/09/19 09:45:10;;;;;;;13.60;10.25;;;22.90;55.40;;;;;;5044137;28;20100;-42
2021/09/19 09:47:54;;;;;;;15.32;10.75;;;23.10;55.50;;;;;;5043873;28;20153;-42
2021/09/19 09:50:39;;;;;;;15.32;11.25;;;23.00;55.20;;;;;;5043614;28;20101;-41
2021/09/19 09:53:23;;;;;;;14.35;10.00;;;23.10;55.50;;;;;;5043948;28;20091;-42
2021/09/19 09:56:07;;;;;;;13.85;9.70;;;23.20;55.70;;;;;;5042549;28;20076;-42
2021/09/19 09:58:52;;;;;;;14.30;10.40;;;23.30;55.90;;;;;;5042464;28;20028;-42
2021/09/19 10:01:37;;;;;;;12.93;8.50;;;23.30;55.10;;;;;;5028878;28;20035;-41
2021/09/19 10:04:21;;;;;;;9.10;7.18;;;23.20;54.50;;;;;;5042794;28;20030;-42
2021/09/19 10:07:05;;;;;;;9.85;6.90;;;23.20;54.30;;;;;;5042481;28;20076;-41
2021/09/19 10:09:49;;;;;;;8.63;6.80;;;23.20;53.70;;;;;;5043482;28;20390;-42
2021/09/19 10:12:34;;;;;;;11.00;6.72;;;23.00;53.30;;;;;;5043535;28;20048;-41
2021/09/19 10:15:18;;;;;;;11.07;6.80;;;23.00;52.40;;;;;;5043376;28;20029;-42
2021/09/19 10:18:03;;;;;;;9.57;7.03;;;22.90;52.20;;;;;;5043842;28;20040;-41
2021/09/19 10:20:48;;;;;;;8.13;5.72;;;22.90;52.30;;;;;;5043447;28;20040;-44
2021/09/19 10:23:33;;;;;;;10.48;6.50;;;23.00;52.70;;;;;;5043817;28;20221;-42
2021/09/19 10:26:21;;;;;;;10.20;6.10;;;22.90;52.80;;;;;;5043772;28;20064;-42
2021/09/19 10:29:05;;;;;;;9.70;6.90;;;23.10;53.20;;;;;;5043684;28;20071;-42
2021/09/19 10:31:49;;;;;;;8.10;6.32;;;23.20;53.00;;;;;;5044523;28;20112;-42
2021/09/19 10:34:35;;;;;;;8.15;6.07;;;23.30;52.70;;;;;;5047135;28;20096;-41
2021/09/19 10:37:44;;;;;;;10.13;6.38;;;23.50;52.10;;;;;;5047410;28;20043;-42
2021/09/19 10:40:38;;;;;;;9.77;6.65;;;23.50;51.10;;;;;;5046393;28;20044;-41
2021/09/19 10:43:23;;;;;;;8.85;6.03;;;23.60;50.70;;;;;;5047310;28;20091;-41
2021/09/19 10:46:07;;;;;;;10.50;7.68;;;23.80;51.40;;;;;;5047097;28;20028;-43
2021/09/19 10:48:51;;;;;;;9.70;6.68;;;23.80;51.00;;;;;;5047121;28;20050;-42
2021/09/19 10:52:01;;;;;;;8.18;6.25;;;23.90;50.30;;;;;;5032072;28;20056;-42
2021/09/19 10:54:52;;;;;;;11.50;6.93;;;24.10;50.10;;;;;;5046980;28;20100;-43
2021/09/19 10:57:37;;;;;;;9.60;6.70;;;24.20;51.10;;;;;;5046802;28;20028;-42
2021/09/19 11:00:22;;;;;;;11.50;7.03;;;24.30;51.20;;;;;;5046507;28;20033;-42
2021/09/19 11:03:27;;;;;;;9.52;6.50;;;24.20;50.50;;;;;;5047131;28;20067;-41
2021/09/19 11:06:22;;;;;;;9.13;6.40;;;24.30;50.50;;;;;;5046722;28;20075;-43
2021/09/19 11:09:26;;;;;;;9.40;6.45;;;24.40;49.40;;;;;;5046214;28;20293;-42
2021/09/19 11:12:15;;;;;;;7.22;6.38;;;24.50;49.00;;;;;;5046507;28;20075;-42
2021/09/19 11:15:04;;;;;;;8.70;6.53;;;24.50;48.30;;;;;;5047001;28;20382;-42
2021/09/19 11:17:50;;;;;;;8.77;5.97;;;24.60;48.20;;;;;;5046645;28;20040;-42
2021/09/19 11:20:34;;;;;;;6.07;4.85;;;24.60;47.70;;;;;;5046812;28;20099;-43
2021/09/19 11:23:22;;;;;;;7.97;5.93;;;24.80;50.60;;;;;;5045606;28;20068;-41
2021/09/19 11:26:06;;;;;;;7.32;5.65;;;24.70;48.20;;;;;;5046588;28;20087;-43
2021/09/19 11:28:53;;;;;;;7.03;5.47;;;24.70;46.90;;;;;;5046364;28;20036;-43
2021/09/19 11:31:38;;;;;;;6.82;4.95;;;24.50;47.10;;;;;;5046274;28;20035;-42
2021/09/19 11:34:23;;;;;;;7.10;5.20;;;24.70;47.90;;;;;;5045332;28;20328;-42
2021/09/19 11:37:08;;;;;;;7.20;5.65;;;24.70;47.90;;;;;;5045273;28;20068;-42
2021/09/19 11:39:52;;;;;;;6.50;5.30;;;24.60;46.50;;;;;;5045901;28;20048;-43
2021/09/19 11:42:37;;;;;;;8.57;5.40;;;24.40;47.00;;;;;;5044879;28;20029;-42
2021/09/19 11:45:21;;;;;;;6.05;4.82;;;24.30;48.10;;;;;;5045889;28;20033;-42
2021/09/19 11:48:08;;;;;;;6.85;5.38;;;24.50;47.20;;;;;;5046272;28;20352;-42
2021/09/19 11:50:52;;;;;;;7.18;5.50;;;24.40;47.70;;;;;;5046039;28;20036;-42
2021/09/19 11:53:36;;;;;;;5.63;4.80;;;24.40;47.40;;;;;;5046333;28;20041;-41
2021/09/19 11:56:22;;;;;;;5.53;4.57;;;24.30;47.80;;;;;;5046241;28;20079;-40
2021/09/19 11:59:10;;;;;;;6.38;4.82;;;24.50;47.80;;;;;;5045620;28;20390;-41
2021/09/19 12:01:55;;;;;;;7.32;4.95;;;24.50;48.10;;;;;;5045590;28;20032;-42
2021/09/19 12:04:46;;;;;;;7.07;4.63;;;24.30;48.60;;;;;;5045507;28;20037;-40
2021/09/19 12:07:30;;;;;;;5.97;4.60;;;24.30;48.90;;;;;;5045498;28;20032;-41
2021/09/19 12:10:14;;;;;;;6.13;4.38;;;24.10;49.10;;;;;;5044424;28;20032;-41
2021/09/19 12:12:58;;;;;;;6.05;4.40;;;24.10;48.40;;;;;;5045258;28;20024;-40
2021/09/19 12:15:42;;;;;;;8.70;4.28;;;24.00;48.90;;;;;;5045385;28;20217;-40
2021/09/19 12:18:28;;;;;;;5.82;4.50;;;23.80;48.30;;;;;;5045283;28;20344;-40
2021/09/19 12:21:20;;;;;;;5.93;4.10;;;23.80;48.70;;;;;;5045764;28;20080;-41
2021/09/19 12:24:04;;;;;;;5.03;4.28;;;23.80;50.20;;;;;;5044233;28;20075;-41
2021/09/19 12:26:48;;;;;;;7.18;4.97;;;23.80;49.30;;;;;;5045296;28;20040;-40
2021/09/19 12:29:32;;;;;;;4.80;4.30;;;23.60;49.50;;;;;;5044914;28;20082;-40
2021/09/19 12:32:17;;;;;;;7.03;5.70;;;23.40;50.10;;;;;;5045453;28;20029;-40
2021/09/19 12:35:28;;;;;;;9.15;5.20;;;23.40;49.50;;;;;;5045389;28;20036;-41
2021/09/19 12:38:14;;;;;;;;;;;23.30;50.10;;;;;;5045796;28;20039;-40
2021/09/19 12:41:02;;;;;;;5.45;4.47;;;23.10;52.60;;;;;;5047171;28;19920;-40
2021/09/19 12:43:46;;;;;;;5.28;4.32;;;23.10;52.90;;;;;;5045159;28;20347;-40
2021/09/19 12:46:30;;;;;;;6.25;4.35;;;23.10;51.90;;;;;;5045133;28;20053;-41
2021/09/19 12:49:26;;;;;;;6.25;4.28;;;23.10;53.50;;;;;;5044061;28;20020;-41
2021/09/19 12:52:12;;;;;;;8.40;5.00;;;23.00;51.80;;;;;;5045041;28;20351;-41
2021/09/19 12:54:57;;;;;;;5.82;4.70;;;22.90;53.20;;;;;;5043903;28;20075;-40
2021/09/19 12:57:42;;;;;;;6.13;4.72;;;22.80;53.20;;;;;;5044669;28;20033;-40
2021/09/19 13:00:27;;;;;;;5.32;4.47;;;22.80;53.40;;;;;;5044490;28;20079;-41
2021/09/19 13:03:11;;;;;;;4.88;4.05;;;22.70;52.70;;;;;;5044935;28;20024;-40
2021/09/19 13:05:56;;;;;;;4.63;3.33;;;22.60;53.20;;;;;;5043686;28;20036;-40
2021/09/19 13:08:45;;;;;;;6.45;4.30;;;22.80;52.80;;;;;;5044475;28;20032;-40
2021/09/19 13:11:30;;;;;;;5.47;4.00;;;22.70;52.50;;;;;;5044343;28;20035;-40
2021/09/19 13:14:14;;;;;;;5.88;3.83;;;22.70;52.00;;;;;;5043268;28;20063;-40
2021/09/19 13:16:58;;;;;;;5.15;3.70;;;22.60;52.10;;;;;;5044611;28;20387;-42
2021/09/19 13:19:43;;;;;;;4.75;3.50;;;22.80;52.00;;;;;;5044393;28;20028;-40
2021/09/19 13:22:27;;;;;;;5.15;3.47;;;22.80;52.20;;;;;;5044283;28;20036;-41
2021/09/19 13:25:11;;;;;;;5.63;3.60;;;23.00;52.40;;;;;;5044173;28;20075;-41
2021/09/19 13:27:55;;;;;;;3.90;3.38;;;22.90;51.70;;;;;;5043257;28;20032;-41
2021/09/19 13:30:39;;;;;;;4.03;3.17;;;22.80;51.70;;;;;;5044135;28;20024;-40
2021/09/19 13:33:24;;;;;;;4.65;3.50;;;22.80;51.90;;;;;;5043978;28;20032;-40
2021/09/19 13:36:08;;;;;;;5.03;3.38;;;22.70;52.50;;;;;;5044638;28;20016;-42
2021/09/19 13:38:53;;;;;;;4.47;3.10;;;22.60;52.60;;;;;;5043941;28;20071;-43
2021/09/19 13:41:37;;;;;;;5.15;3.50;;;22.50;52.30;;;;;;5044368;28;20052;-40
2021/09/19 13:44:22;;;;;;;5.05;3.40;;;22.50;52.60;;;;;;5044173;28;20033;-40
2021/09/19 13:47:06;;;;;;;5.68;3.05;;;22.40;53.00;;;;;;5044075;28;20220;-40
2021/09/19 13:49:50;;;;;;;4.65;3.58;;;22.30;52.80;;;;;;5043743;28;20032;-40
2021/09/19 13:52:34;;;;;;;6.05;3.65;;;22.30;52.90;;;;;;5044067;28;20135;-40
2021/09/19 13:55:19;;;;;;;3.92;3.17;;;22.30;52.80;;;;;;5043960;28;20028;-41
2021/09/19 13:58:03;;;;;;;5.97;3.38;;;22.30;52.60;;;;;;5043829;28;20405;-40
2021/09/19 14:00:48;;;;;;;3.92;3.15;;;22.20;52.60;;;;;;5043578;28;20036;-41
2021/09/19 14:03:32;;;;;;;4.35;3.40;;;22.20;53.70;;;;;;5043555;28;20090;-41
2021/09/19 14:06:16;;;;;;;3.75;3.13;;;22.10;52.90;;;;;;5043326;28;20048;-40
2021/09/19 14:09:03;;;;;;;4.72;3.58;;;22.00;52.80;;;;;;5043854;28;20024;-40
2021/09/19 14:11:47;;;;;;;5.70;3.60;;;22.00;52.70;;;;;;5043564;28;20224;-40
2021/09/19 14:14:32;;;;;;;6.32;3.70;;;22.00;52.40;;;;;;5043864;28;20039;-40